Time;durP1;ratioP1;P1;durP2;ratioP2;P2;SDS_P1;SDS_P2;PMS_P1;PMS_P2;Temp;Humidity;BMP_temperature;BMP_pressure;BME280_temperature;BME280_humidity;BME280_pressure;Samples;Min_cycle;Max_cycle;Signal;HPM_P1;HPM_P2
2024/01/28 00:01:00;;;;;;;;;;;-0.30;99.90;;;-146.41;100.00;57768.22;4981209;28;1190;-71
2024/01/28 00:03:28;;;;;;;;;;;-0.40;99.90;;;-146.41;100.00;57768.22;4983319;28;1107;-70
2024/01/28 00:05:55;;;;;;;;;;;-0.40;99.90;;;-146.41;100.00;57768.22;4964646;28;1297;-71
2024/01/28 00:08:25;;;;;;;;;;;-0.40;99.90;;;-146.41;100.00;57768.22;4982324;28;1227;-70
2024/01/28 00:10:54;;;;;;;;;;;-0.40;99.90;;;-146.41;100.00;57768.22;4981035;28;1111;-71
2024/01/28 00:13:24;;;;;;;;;;;-0.40;99.90;;;-146.41;100.00;57768.22;4996869;28;1369;-71
2024/01/28 00:15:54;;;;;;;;;;;-0.30;99.90;;;-146.41;100.00;57768.22;4982960;28;1243;-71
2024/01/28 00:18:22;;;;;;;;;;;-0.20;99.90;;;-146.41;100.00;57768.22;4981729;28;1181;-70
2024/01/28 00:20:50;;;;;;;;;;;-0.10;99.90;;;-146.41;100.00;57768.22;4982886;28;1361;-70
2024/01/28 00:23:34;;;;;;;;;;;-0.20;99.90;;;-146.41;100.00;57768.22;4978296;28;1676;-70
2024/01/28 00:26:04;;;;;;;;;;;-0.10;99.90;;;-146.41;100.00;57768.22;4966838;28;1320;-71
2024/01/28 00:28:31;;;;;;;;;;;-0.10;99.90;;;-146.41;100.00;57768.22;4984008;28;1902;-71
2024/01/28 00:30:58;;;;;;;;;;;-0.10;99.90;;;-146.41;100.00;57768.22;4983821;28;1043;-70
2024/01/28 00:33:24;;;;;;;;;;;-0.10;99.90;;;-146.41;100.00;57768.22;4979943;28;1507;-71
2024/01/28 00:35:51;;;;;;;;;;;-0.20;99.90;;;-146.41;100.00;57768.22;4983897;28;1305;-71
2024/01/28 00:38:18;;;;;;;;;;;-0.20;99.90;;;-146.41;100.00;57768.22;4984161;28;1214;-71
2024/01/28 00:40:45;;;;;;;;;;;-0.10;99.90;;;-146.41;100.00;57768.22;4981991;28;1166;-70
2024/01/28 00:43:12;;;;;;;;;;;-0.10;99.90;;;-146.41;100.00;57768.22;4981292;28;1065;-70
2024/01/28 00:45:39;;;;;;;;;;;-0.20;99.90;;;-146.41;100.00;57768.22;4979930;28;1281;-70
2024/01/28 00:48:06;;;;;;;;;;;-0.20;99.90;;;-146.41;100.00;57768.22;4981478;28;1186;-70
2024/01/28 00:50:34;;;;;;;;;;;-0.30;99.90;;;-146.41;100.00;57768.22;4982439;28;1906;-70
2024/01/28 00:53:00;;;;;;;;;;;-0.40;99.90;;;-146.41;100.00;57768.22;4980572;28;1161;-70
2024/01/28 00:55:28;;;;;;;;;;;-0.40;99.90;;;-146.41;100.00;57768.22;4978354;28;1257;-70
2024/01/28 00:57:55;;;;;;;;;;;-0.40;99.90;;;-146.41;100.00;57768.22;4983379;28;1290;-71
2024/01/28 01:00:23;;;;;;;;;;;-0.40;99.90;;;-146.41;100.00;57768.22;4982960;28;1067;-71
2024/01/28 01:02:52;;;;;;;;;;;-0.40;99.90;;;-146.41;100.00;57768.22;4981975;28;1246;-70
2024/01/28 01:05:19;;;;;;;;;;;-0.40;99.90;;;-146.41;100.00;57768.22;4979629;28;1340;-71
2024/01/28 01:07:46;;;;;;;;;;;-0.30;99.90;;;-146.41;100.00;57768.22;4982172;28;1155;-71
2024/01/28 01:10:14;;;;;;;;;;;-0.30;99.90;;;-146.41;100.00;57768.22;4982770;28;1902;-71
2024/01/28 01:12:40;;;;;;;;;;;-0.20;99.90;;;-146.41;100.00;57768.22;4965207;28;1191;-70
2024/01/28 01:15:08;;;;;;;;;;;-0.30;99.90;;;-146.41;100.00;57768.22;4982154;28;1370;-70
2024/01/28 01:17:36;;;;;;;;;;;-0.20;99.90;;;-146.41;100.00;57768.22;4981208;28;1180;-70
2024/01/28 01:20:03;;;;;;;;;;;-0.20;99.90;;;-146.41;100.00;57768.22;4981883;28;1143;-71
2024/01/28 01:22:30;;;;;;;;;;;-0.20;99.90;;;-146.41;100.00;57768.22;4978545;28;1130;-71
2024/01/28 01:24:57;;;;;;;;;;;-0.20;99.90;;;-146.41;100.00;57768.22;4979203;28;1379;-71
2024/01/28 01:27:24;;;;;;;;;;;-0.20;99.90;;;-146.41;100.00;57768.22;4975681;28;1255;-70
2024/01/28 01:29:51;;;;;;;;;;;-0.10;99.90;;;-146.41;100.00;57768.22;4975861;28;1907;-71
2024/01/28 01:32:18;;;;;;;;;;;-0.20;99.90;;;-146.41;100.00;57768.22;4980367;28;1267;-71
2024/01/28 01:34:45;;;;;;;;;;;-0.10;99.90;;;-146.41;100.00;57768.22;4993318;28;1445;-71
2024/01/28 01:37:12;;;;;;;;;;;-0.10;99.90;;;-146.41;100.00;57768.22;4993172;28;1204;-71
2024/01/28 01:39:39;;;;;;;;;;;0.00;99.90;;;-146.41;100.00;57768.22;4983011;28;1021;-70
2024/01/28 01:42:06;;;;;;;;;;;0.10;99.90;;;-146.41;100.00;57768.22;4977840;28;1200;-71
2024/01/28 01:44:34;;;;;;;;;;;0.10;99.90;;;-146.41;100.00;57768.22;5009216;28;1348;-71
2024/01/28 01:47:01;;;;;;;;;;;0.00;99.90;;;-146.41;100.00;57768.22;4977647;28;1396;-71
2024/01/28 01:49:27;;;;;;;;;;;0.00;99.90;;;-146.41;100.00;57768.22;4979004;28;1906;-71
2024/01/28 01:51:55;;;;;;;;;;;0.10;99.90;;;-146.41;100.00;57768.22;4974704;28;1334;-69
2024/01/28 01:54:22;;;;;;;;;;;0.10;99.90;;;-146.41;100.00;57768.22;4977407;28;1631;-71
2024/01/28 01:56:49;;;;;;;;;;;0.10;99.90;;;-146.41;100.00;57768.22;4978662;28;1245;-71
2024/01/28 01:59:20;;;;;;;;;;;0.10;99.90;;;-146.41;100.00;57768.22;4991858;28;1075;-70
2024/01/28 02:01:47;;;;;;;;;;;0.00;99.90;;;-146.41;100.00;57768.22;4974060;28;1085;-71
2024/01/28 02:04:14;;;;;;;;;;;-0.10;99.90;;;-146.41;100.00;57768.22;4979122;28;1435;-72
2024/01/28 02:06:41;;;;;;;;;;;0.00;99.90;;;-146.41;100.00;57768.22;4993386;28;1083;-71
2024/01/28 02:09:09;;;;;;;;;;;-0.10;99.90;;;-146.41;100.00;57768.22;4978319;28;1987;-71
2024/01/28 02:11:36;;;;;;;;;;;-0.10;99.90;;;-146.41;100.00;57768.22;4978253;28;1050;-71
2024/01/28 02:14:03;;;;;;;;;;;-0.10;99.90;;;-146.41;100.00;57768.22;4980703;28;1453;-70
2024/01/28 02:16:30;;;;;;;;;;;-0.10;99.90;;;-146.41;100.00;57768.22;4980837;28;1169;-70
2024/01/28 02:18:57;;;;;;;;;;;-0.10;99.90;;;-146.41;100.00;57768.22;4979942;28;1402;-70
2024/01/28 02:21:24;;;;;;;;;;;-0.20;99.90;;;-146.41;100.00;57768.22;4977164;28;1289;-71
2024/01/28 02:23:51;;;;;;;;;;;-0.30;99.90;;;-146.41;100.00;57768.22;4977373;28;1341;-71
2024/01/28 02:26:18;;;;;;;;;;;-0.30;99.90;;;-146.41;100.00;57768.22;4975869;28;1181;-70
2024/01/28 02:28:44;;;;;;;;;;;-0.30;99.90;;;-146.41;100.00;57768.22;4976583;28;1151;-71
2024/01/28 02:31:11;;;;;;;;;;;-0.30;99.90;;;-146.41;100.00;57768.22;4978652;28;1907;-70
2024/01/28 02:33:38;;;;;;;;;;;-0.40;99.90;;;-146.41;100.00;57768.22;4980264;28;1305;-70
2024/01/28 02:36:06;;;;;;;;;;;-0.40;99.90;;;-146.41;100.00;57768.22;4977686;28;1213;-71
2024/01/28 02:38:33;;;;;;;;;;;-0.50;99.90;;;-146.41;100.00;57768.22;4978203;28;1182;-70
2024/01/28 02:41:00;;;;;;;;;;;-0.40;99.90;;;-146.41;100.00;57768.22;4976824;28;1023;-71
2024/01/28 02:43:27;;;;;;;;;;;-0.50;99.90;;;-146.41;100.00;57768.22;4977396;28;1145;-70
2024/01/28 02:45:54;;;;;;;;;;;-0.50;99.90;;;-146.41;100.00;57768.22;4978294;28;1356;-71
2024/01/28 02:48:21;;;;;;;;;;;-0.50;99.90;;;-146.41;100.00;57768.22;4992919;28;1293;-71
2024/01/28 02:50:48;;;;;;;;;;;-0.60;99.90;;;-146.41;100.00;57768.22;4991267;28;1903;-71
2024/01/28 02:53:15;;;;;;;;;;;-0.60;99.90;;;-146.41;100.00;57768.22;4979002;28;983;-70
2024/01/28 02:55:42;;;;;;;;;;;-0.60;99.90;;;-146.41;100.00;57768.22;4973205;28;1281;-70
2024/01/28 02:58:09;;;;;;;;;;;-0.60;99.90;;;-146.41;100.00;57768.22;4989114;28;1929;-70
2024/01/28 03:00:36;;;;;;;;;;;-0.60;99.90;;;-146.41;100.00;57768.22;4980233;28;1210;-72
2024/01/28 03:03:04;;;;;;;;;;;-0.60;99.90;;;-146.41;100.00;57768.22;4976376;28;1192;-70
2024/01/28 03:05:31;;;;;;;;;;;-0.70;99.90;;;-146.41;100.00;57768.22;4993941;28;1383;-70
2024/01/28 03:07:58;;;;;;;;;;;-0.80;99.90;;;-146.41;100.00;57768.22;4977161;28;1159;-70
2024/01/28 03:10:25;;;;;;;;;;;-0.80;99.90;;;-146.41;100.00;57768.22;4975099;28;1883;-71
2024/01/28 03:12:51;;;;;;;;;;;-0.80;99.90;;;-146.41;100.00;57768.22;4978008;28;1181;-71
2024/01/28 03:15:19;;;;;;;;;;;-0.80;99.90;;;-146.41;100.00;57768.22;4978812;28;1439;-71
2024/01/28 03:17:46;;;;;;;;;;;-0.80;99.90;;;-146.41;100.00;57768.22;4994435;28;1078;-72
2024/01/28 03:20:16;;;;;;;;;;;-0.80;99.90;;;-146.41;100.00;57768.22;4976970;28;1122;-69
2024/01/28 03:22:42;;;;;;;;;;;-0.70;99.90;;;-146.41;100.00;57768.22;4992856;28;1375;-71
2024/01/28 03:25:09;;;;;;;;;;;-0.70;99.90;;;-146.41;100.00;57768.22;4978899;28;1343;-70
2024/01/28 03:27:37;;;;;;;;;;;-0.70;99.90;;;-146.41;100.00;57768.22;4977901;28;1606;-72
2024/01/28 03:30:04;;;;;;;;;;;-0.70;99.90;;;-146.41;100.00;57768.22;4976006;28;1911;-70
2024/01/28 03:32:31;;;;;;;;;;;-0.70;99.90;;;-146.41;100.00;57768.22;4981802;28;1141;-71
2024/01/28 03:35:00;;;;;;;;;;;-0.70;99.90;;;-146.41;100.00;57768.22;4978024;28;1382;-71
2024/01/28 03:37:27;;;;;;;;;;;-0.70;99.90;;;-146.41;100.00;57768.22;4977916;28;1024;-71
2024/01/28 03:39:56;;;;;;;;;;;-0.70;99.90;;;-146.41;100.00;57768.22;4975590;28;1221;-71
2024/01/28 03:42:23;;;;;;;;;;;-0.60;99.90;;;-146.41;100.00;57768.22;4979445;28;1090;-70
2024/01/28 03:44:50;;;;;;;;;;;-0.60;99.90;;;-146.41;100.00;57768.22;4976378;28;1280;-70
2024/01/28 03:47:17;;;;;;;;;;;-0.60;99.90;;;-146.41;100.00;57768.22;4996724;28;1118;-70
2024/01/28 03:49:44;;;;;;;;;;;-0.60;99.90;;;-146.41;100.00;57768.22;4975375;28;2008;-71
2024/01/28 03:52:11;;;;;;;;;;;-0.60;99.90;;;-146.41;100.00;57768.22;4996939;28;1153;-70
2024/01/28 03:54:38;;;;;;;;;;;-0.60;99.90;;;-146.41;100.00;57768.22;4980483;28;1391;-70
2024/01/28 03:57:05;;;;;;;;;;;-0.70;99.90;;;-146.41;100.00;57768.22;4979133;28;1137;-70
2024/01/28 03:59:32;;;;;;;;;;;-0.70;99.90;;;-146.41;100.00;57768.22;5013127;28;1236;-71
2024/01/28 04:02:00;;;;;;;;;;;-0.70;99.90;;;-146.41;100.00;57768.22;4997639;28;1439;-70
2024/01/28 04:04:27;;;;;;;;;;;-0.70;99.90;;;-146.41;100.00;57768.22;5013515;28;1284;-71
2024/01/28 04:06:54;;;;;;;;;;;-0.70;99.90;;;-146.41;100.00;57768.22;4980963;28;1218;-70
2024/01/28 04:09:21;;;;;;;;;;;-0.70;99.90;;;-146.41;100.00;57768.22;4981642;28;1497;-71
2024/01/28 04:11:48;;;;;;;;;;;-0.70;99.90;;;-146.41;100.00;57768.22;4983901;28;1906;-70
2024/01/28 04:14:16;;;;;;;;;;;-0.70;99.90;;;-146.41;100.00;57768.22;4995105;28;1415;-70
2024/01/28 04:16:42;;;;;;;;;;;-0.70;99.90;;;-146.41;100.00;57768.22;5012938;28;1112;-70
2024/01/28 04:19:09;;;;;;;;;;;-0.70;99.90;;;-146.41;100.00;57768.22;4996046;28;1081;-71
2024/01/28 04:21:36;;;;;;;;;;;-0.70;99.90;;;-146.41;100.00;57768.22;4994660;28;1074;-71
2024/01/28 04:24:03;;;;;;;;;;;-0.80;99.90;;;-146.41;100.00;57768.22;5009342;28;1419;-70
2024/01/28 04:26:30;;;;;;;;;;;-0.90;99.90;;;-146.41;100.00;57768.22;4979918;28;1011;-70
2024/01/28 04:28:57;;;;;;;;;;;-0.90;99.90;;;-146.41;100.00;57768.22;4978382;28;1098;-71
2024/01/28 04:31:27;;;;;;;;;;;-0.90;99.90;;;-146.41;100.00;57768.22;4993370;28;1906;-71
2024/01/28 04:33:54;;;;;;;;;;;-0.80;99.90;;;-146.41;100.00;57768.22;4978885;28;1316;-71
2024/01/28 04:36:21;;;;;;;;;;;-0.90;99.90;;;-146.41;100.00;57768.22;5010775;28;1333;-71
2024/01/28 04:38:48;;;;;;;;;;;-1.00;99.90;;;-146.41;100.00;57768.22;4978629;28;1438;-71
2024/01/28 04:41:15;;;;;;;;;;;-1.10;99.90;;;-146.41;100.00;57768.22;4978098;28;1460;-70
2024/01/28 04:43:42;;;;;;;;;;;-1.20;99.90;;;-146.41;100.00;57768.22;4978814;28;1233;-71
2024/01/28 04:46:09;;;;;;;;;;;-1.30;99.90;;;-146.41;100.00;57768.22;4996344;28;1442;-71
2024/01/28 04:48:36;;;;;;;;;;;-1.20;99.90;;;-146.41;100.00;57768.22;4980734;28;1081;-70
2024/01/28 04:51:04;;;;;;;;;;;-1.20;99.90;;;-146.41;100.00;57768.22;4978510;28;1981;-70
2024/01/28 04:53:31;;;;;;;;;;;-1.20;99.90;;;-146.41;100.00;57768.22;4978793;28;1156;-71
2024/01/28 04:55:58;;;;;;;;;;;-1.20;99.90;;;-146.41;100.00;57768.22;4979051;28;1437;-71
2024/01/28 04:58:25;;;;;;;;;;;-1.10;99.90;;;-146.41;100.00;57768.22;4978151;28;1142;-71
2024/01/28 05:00:54;;;;;;;;;;;-1.20;99.90;;;-146.41;100.00;57768.22;5009526;28;1086;-71
2024/01/28 05:03:21;;;;;;;;;;;-1.20;99.90;;;-146.41;100.00;57768.22;4978844;28;1042;-71
2024/01/28 05:05:48;;;;;;;;;;;-1.20;99.90;;;-146.41;100.00;57768.22;4983279;28;1292;-70
2024/01/28 05:08:15;;;;;;;;;;;-1.20;99.90;;;-146.41;100.00;57768.22;4981107;28;1329;-70
2024/01/28 05:10:43;;;;;;;;;;;-1.20;99.90;;;-146.41;100.00;57768.22;4982028;28;1907;-71
2024/01/28 05:13:09;;;;;;;;;;;-1.20;99.90;;;-146.41;100.00;57768.22;4977370;28;1102;-71
2024/01/28 05:15:36;;;;;;;;;;;-1.30;99.90;;;-146.41;100.00;57768.22;4976403;28;1410;-69
2024/01/28 05:18:03;;;;;;;;;;;-1.40;99.90;;;-146.41;100.00;57768.22;4997490;28;1078;-70
2024/01/28 05:20:30;;;;;;;;;;;-1.50;99.90;;;-146.41;100.00;57768.22;5010931;28;1077;-71
2024/01/28 05:22:59;;;;;;;;;;;-1.50;99.90;;;-146.41;100.00;57768.22;4980144;28;1317;-70
2024/01/28 05:25:26;;;;;;;;;;;-1.50;99.90;;;-146.41;100.00;57768.22;4977621;28;1293;-71
2024/01/28 05:27:54;;;;;;;;;;;-1.50;99.90;;;-146.41;100.00;57768.22;4982704;28;1165;-71
2024/01/28 05:30:21;;;;;;;;;;;-1.40;99.90;;;-146.41;100.00;57768.22;4983229;28;1910;-71
2024/01/28 05:32:48;;;;;;;;;;;-1.40;99.90;;;-146.41;100.00;57768.22;4980016;28;1139;-70
2024/01/28 05:35:16;;;;;;;;;;;-1.40;99.90;;;-146.41;100.00;57768.22;4977510;28;1328;-70
2024/01/28 05:37:43;;;;;;;;;;;-1.30;99.90;;;-146.41;100.00;57768.22;4978211;28;1131;-71
2024/01/28 05:40:10;;;;;;;;;;;-1.30;99.90;;;-146.41;100.00;57768.22;4978911;28;1200;-72
2024/01/28 05:42:37;;;;;;;;;;;-1.30;99.90;;;-146.41;100.00;57768.22;4976591;28;1111;-71
2024/01/28 05:45:05;;;;;;;;;;;-1.30;99.90;;;-146.41;100.00;57768.22;5009235;28;1289;-71
2024/01/28 05:47:31;;;;;;;;;;;-1.30;99.90;;;-146.41;100.00;57768.22;4979856;28;1038;-71
2024/01/28 05:49:58;;;;;;;;;;;-1.40;99.90;;;-146.41;100.00;57768.22;4976295;28;1173;-70
2024/01/28 05:52:25;;;;;;;;;;;-1.40;99.90;;;-146.41;100.00;57768.22;4974831;28;1130;-70
2024/01/28 05:54:52;;;;;;;;;;;-1.40;99.90;;;-146.41;100.00;57768.22;4979943;28;1392;-71
2024/01/28 05:57:19;;;;;;;;;;;-1.40;99.90;;;-146.41;100.00;57768.22;4979069;28;1030;-71
2024/01/28 05:59:46;;;;;;;;;;;-1.40;99.90;;;-146.41;100.00;57768.22;4981004;28;1186;-70
2024/01/28 06:02:14;;;;;;;;;;;-1.40;99.90;;;-146.41;100.00;57768.22;4977158;28;1609;-70
2024/01/28 06:04:41;;;;;;;;;;;-1.40;99.90;;;-146.41;100.00;57768.22;4976385;28;1339;-71
2024/01/28 06:07:09;;;;;;;;;;;-1.50;99.90;;;-146.41;100.00;57768.22;4978106;28;1063;-70
2024/01/28 06:09:36;;;;;;;;;;;-1.50;99.90;;;-146.41;100.00;57768.22;4979256;28;1454;-70
2024/01/28 06:12:03;;;;;;;;;;;-1.50;99.90;;;-146.41;100.00;57768.22;5008859;28;1951;-70
2024/01/28 06:14:30;;;;;;;;;;;-1.50;99.90;;;-146.41;100.00;57768.22;5010760;28;1465;-70
2024/01/28 06:16:57;;;;;;;;;;;-1.50;99.90;;;-146.41;100.00;57768.22;4979242;28;1026;-71
2024/01/28 06:19:24;;;;;;;;;;;-1.50;99.90;;;-146.41;100.00;57768.22;4975852;28;1241;-71
2024/01/28 06:21:51;;;;;;;;;;;-1.50;99.90;;;-146.41;100.00;57768.22;4982977;28;1470;-70
2024/01/28 06:24:18;;;;;;;;;;;-1.50;99.90;;;-146.41;100.00;57768.22;4977375;28;1527;-71
2024/01/28 06:26:45;;;;;;;;;;;-1.50;99.90;;;-146.41;100.00;57768.22;4978837;28;1064;-71
2024/01/28 06:29:12;;;;;;;;;;;-1.60;99.90;;;-146.41;100.00;57768.22;4980852;28;1114;-71
2024/01/28 06:31:40;;;;;;;;;;;-1.60;99.90;;;-146.41;100.00;57768.22;4981100;28;1891;-71
2024/01/28 06:34:06;;;;;;;;;;;-1.60;99.90;;;-146.41;100.00;57768.22;4977483;28;1383;-71
2024/01/28 06:36:33;;;;;;;;;;;-1.70;99.90;;;-146.41;100.00;57768.22;4996420;28;1050;-71
2024/01/28 06:39:00;;;;;;;;;;;-1.60;99.90;;;-146.41;100.00;57768.22;4977764;28;1134;-70
2024/01/28 06:41:27;;;;;;;;;;;-1.70;99.90;;;-146.41;100.00;57768.22;4975647;28;1186;-71
2024/01/28 06:43:54;;;;;;;;;;;-1.60;99.90;;;-146.41;100.00;57768.22;4978049;28;1340;-71
2024/01/28 06:46:21;;;;;;;;;;;-1.70;99.90;;;-146.41;100.00;57768.22;4977067;28;1590;-70
2024/01/28 06:48:48;;;;;;;;;;;-1.70;99.90;;;-146.41;100.00;57768.22;4979906;28;975;-71
2024/01/28 06:51:15;;;;;;;;;;;-1.70;99.90;;;-146.41;100.00;57768.22;4978469;28;1922;-70
2024/01/28 06:53:44;;;;;;;;;;;-1.80;99.90;;;-146.41;100.00;57768.22;4994597;28;1395;-71
2024/01/28 06:56:11;;;;;;;;;;;-1.90;99.90;;;-146.41;100.00;57768.22;4980250;28;1232;-70
2024/01/28 06:58:38;;;;;;;;;;;-1.90;99.90;;;-146.41;100.00;57768.22;4976165;28;1072;-70
2024/01/28 07:01:05;;;;;;;;;;;-1.90;99.90;;;-146.41;100.00;57768.22;4977919;28;1202;-70
2024/01/28 07:03:32;;;;;;;;;;;-1.80;99.90;;;-146.41;100.00;57768.22;4976497;28;1376;-70
2024/01/28 07:05:59;;;;;;;;;;;-1.60;99.90;;;-146.41;100.00;57768.22;4979950;28;1363;-71
2024/01/28 07:08:26;;;;;;;;;;;-1.60;99.90;;;-146.41;100.00;57768.22;4976354;28;1205;-70
2024/01/28 07:10:53;;;;;;;;;;;-1.50;99.90;;;-146.41;100.00;57768.22;4975458;28;1976;-71
2024/01/28 07:13:20;;;;;;;;;;;-1.50;99.90;;;-146.41;100.00;57768.22;4974896;28;1149;-71
2024/01/28 07:15:46;;;;;;;;;;;-1.40;99.90;;;-146.41;100.00;57768.22;4981069;28;1313;-70
2024/01/28 07:18:13;;;;;;;;;;;-1.30;99.90;;;-146.41;100.00;57768.22;4975873;28;1102;-71
2024/01/28 07:20:40;;;;;;;;;;;-1.30;99.90;;;-146.41;100.00;57768.22;4994332;28;1159;-70
2024/01/28 07:23:07;;;;;;;;;;;-1.40;99.90;;;-146.41;100.00;57768.22;4983033;28;1385;-70
2024/01/28 07:25:34;;;;;;;;;;;-1.40;99.90;;;-146.41;100.00;57768.22;4982538;28;1288;-70
2024/01/28 07:28:02;;;;;;;;;;;-1.40;99.90;;;-146.41;100.00;57768.22;4995159;28;1211;-70
2024/01/28 07:30:31;;;;;;;;;;;-1.40;99.90;;;-146.41;100.00;57768.22;4981054;28;1914;-69
2024/01/28 07:32:58;;;;;;;;;;;-1.30;99.90;;;-146.41;100.00;57768.22;4980838;28;1245;-71
2024/01/28 07:35:25;;;;;;;;;;;-1.30;99.90;;;-146.41;100.00;57768.22;4981102;28;1272;-70
2024/01/28 07:37:52;;;;;;;;;;;-1.20;99.90;;;-146.41;100.00;57768.22;4983148;28;1347;-71
2024/01/28 07:40:19;;;;;;;;;;;-1.10;99.90;;;-146.41;100.00;57768.22;4994196;28;1276;-70
2024/01/28 07:42:45;;;;;;;;;;;-1.00;99.90;;;-146.41;100.00;57768.22;4982778;28;1043;-70
2024/01/28 07:45:12;;;;;;;;;;;-0.90;99.90;;;-146.41;100.00;57768.22;5013322;28;1423;-70
2024/01/28 07:47:39;;;;;;;;;;;-0.90;99.90;;;-146.41;100.00;57768.22;4983254;28;1364;-71
2024/01/28 07:50:10;;;;;;;;;;;-1.00;99.90;;;-146.41;100.00;57768.22;4980864;28;1079;-70
2024/01/28 07:52:37;;;;;;;;;;;-1.00;99.90;;;-146.41;100.00;57768.22;4980028;28;1906;-70
2024/01/28 07:55:05;;;;;;;;;;;-1.00;99.90;;;-146.41;100.00;57768.22;4997286;28;1423;-71
2024/01/28 07:57:32;;;;;;;;;;;-0.90;99.90;;;-146.41;100.00;57768.22;5009149;28;1636;-70
2024/01/28 07:59:59;;;;;;;;;;;-0.90;99.90;;;-146.41;100.00;57768.22;4980092;28;1042;-71
2024/01/28 08:02:26;;;;;;;;;;;-0.90;99.90;;;-146.41;100.00;57768.22;4996905;28;1229;-70
2024/01/28 08:04:54;;;;;;;;;;;-0.80;99.90;;;-146.41;100.00;57768.22;5013470;28;1327;-71
2024/01/28 08:07:22;;;;;;;;;;;-0.80;99.90;;;-146.41;100.00;57768.22;4979696;28;1102;-71
2024/01/28 08:09:49;;;;;;;;;;;-0.90;99.90;;;-146.41;100.00;57768.22;4980011;28;1201;-70
2024/01/28 08:12:16;;;;;;;;;;;-1.00;99.90;;;-146.41;100.00;57768.22;4995171;28;1906;-70
2024/01/28 08:14:43;;;;;;;;;;;-0.90;99.90;;;-146.41;100.00;57768.22;4980344;28;1256;-71
2024/01/28 08:17:10;;;;;;;;;;;-0.80;99.90;;;-146.41;100.00;57768.22;4983688;28;1131;-70
2024/01/28 08:19:38;;;;;;;;;;;-0.70;99.90;;;-146.41;100.00;57768.22;4981798;28;1401;-70
2024/01/28 08:22:05;;;;;;;;;;;-0.60;99.90;;;-146.41;100.00;57768.22;4979172;28;1321;-70
2024/01/28 08:24:37;;;;;;;;;;;-0.50;99.90;;;-146.41;100.00;57768.22;4978481;28;1316;-71
2024/01/28 08:27:05;;;;;;;;;;;-0.40;99.90;;;-146.41;100.00;57768.22;4980677;28;1351;-71
2024/01/28 08:29:32;;;;;;;;;;;-0.20;99.90;;;-146.41;100.00;57768.22;4981284;28;1583;-71
2024/01/28 08:31:59;;;;;;;;;;;-0.10;99.90;;;-146.41;100.00;57768.22;4995997;28;1902;-71
2024/01/28 08:34:26;;;;;;;;;;;0.00;99.90;;;-146.41;100.00;57768.22;4978619;28;1344;-70
2024/01/28 08:36:53;;;;;;;;;;;0.00;99.90;;;-146.41;100.00;57768.22;4963926;28;1353;-70
2024/01/28 08:39:21;;;;;;;;;;;-0.10;99.90;;;-146.41;100.00;57768.22;4979961;28;1454;-70
2024/01/28 08:41:48;;;;;;;;;;;-0.10;99.90;;;-146.41;100.00;57768.22;4995104;28;1383;-71
2024/01/28 08:44:15;;;;;;;;;;;-0.20;99.90;;;-146.41;100.00;57768.22;4983350;28;1332;-71
2024/01/28 08:46:42;;;;;;;;;;;-0.20;99.90;;;-146.41;100.00;57768.22;4977342;28;1069;-71
2024/01/28 08:49:09;;;;;;;;;;;-0.10;99.90;;;-146.41;100.00;57768.22;5010451;28;1054;-70
2024/01/28 08:51:36;;;;;;;;;;;-0.10;99.90;;;-146.41;100.00;57768.22;4979709;28;1930;-71
2024/01/28 08:54:03;;;;;;;;;;;0.10;99.90;;;-146.41;100.00;57768.22;4994824;28;1332;-71
2024/01/28 08:56:29;;;;;;;;;;;0.20;99.90;;;-146.41;100.00;57768.22;4975947;28;1099;-71
2024/01/28 08:58:56;;;;;;;;;;;0.20;99.90;;;-146.41;100.00;57768.22;4982182;28;1054;-71
2024/01/28 09:01:24;;;;;;;;;;;;;;;-146.41;100.00;57768.22;4980367;28;1272;-69
2024/01/28 09:03:51;;;;;;;;;;;0.40;99.90;;;-146.41;100.00;57768.22;4978461;28;1296;-70
2024/01/28 09:06:18;;;;;;;;;;;0.50;99.90;;;-146.41;100.00;57768.22;4977084;28;1096;-71
2024/01/28 09:08:46;;;;;;;;;;;0.50;99.90;;;-146.41;100.00;57768.22;4981484;28;1124;-70
2024/01/28 09:11:12;;;;;;;;;;;0.60;99.90;;;-146.41;100.00;57768.22;4980190;28;1907;-71
2024/01/28 09:13:41;;;;;;;;;;;0.70;99.90;;;-146.41;100.00;57768.22;4981631;28;1370;-70
2024/01/28 09:16:08;;;;;;;;;;;0.80;99.90;;;-146.41;100.00;57768.22;4980144;28;1186;-71
2024/01/28 09:18:34;;;;;;;;;;;0.80;99.90;;;-146.41;100.00;57768.22;4980161;28;1052;-71
2024/01/28 09:21:03;;;;;;;;;;;0.90;99.90;;;-146.41;100.00;57768.22;4978466;28;1212;-71
2024/01/28 09:23:30;;;;;;;;;;;1.00;99.90;;;-146.41;100.00;57768.22;4981113;28;1084;-70
2024/01/28 09:25:57;;;;;;;;;;;1.10;99.90;;;-146.41;100.00;57768.22;4979729;28;1379;-71
2024/01/28 09:28:24;;;;;;;;;;;1.20;99.90;;;-146.41;100.00;57768.22;4981232;28;1411;-71
2024/01/28 09:30:51;;;;;;;;;;;1.30;99.90;;;-146.41;100.00;57768.22;4979608;28;1158;-70
2024/01/28 09:33:18;;;;;;;;;;;1.40;99.90;;;-146.41;100.00;57768.22;4978130;28;1981;-71
2024/01/28 09:35:46;;;;;;;;;;;1.40;99.90;;;-146.41;100.00;57768.22;4979636;28;1292;-71
2024/01/28 09:38:14;;;;;;;;;;;;;;;-146.41;100.00;57768.22;4980711;28;1173;-71
2024/01/28 09:40:41;;;;;;;;;;;1.60;99.90;;;-146.41;100.00;57768.22;4978227;28;1498;-69
2024/01/28 09:43:19;;;;;;;;;;;1.80;99.90;;;-146.41;100.00;57768.22;4975284;28;1333;-72
2024/01/28 09:45:46;;;;;;;;;;;1.80;99.90;;;-146.41;100.00;57768.22;4980968;28;1337;-71
2024/01/28 09:48:13;;;;;;;;;;;1.90;99.90;;;-146.41;100.00;57768.22;4980949;28;1134;-71
2024/01/28 09:50:40;;;;;;;;;;;1.90;99.90;;;-146.41;100.00;57768.22;4961731;28;1161;-71
2024/01/28 09:53:07;;;;;;;;;;;2.00;99.90;;;-146.41;100.00;57768.22;4975408;28;1983;-71
2024/01/28 09:55:34;;;;;;;;;;;2.00;99.90;;;-146.41;100.00;57768.22;4994965;28;1711;-71
2024/01/28 09:58:01;;;;;;;;;;;2.10;99.90;;;-146.41;100.00;57768.22;4980606;28;1552;-71
2024/01/28 10:00:29;;;;;;;;;;;2.10;99.90;;;-146.41;100.00;57768.22;4977634;28;1807;-72
2024/01/28 10:02:56;;;;;;;;;;;2.20;99.90;;;-146.41;100.00;57768.22;4978206;28;1377;-72
2024/01/28 10:05:23;;;;;;;;;;;2.20;99.90;;;-146.41;100.00;57768.22;4978324;28;1304;-71
2024/01/28 10:07:59;;;;;;;;;;;2.30;99.90;;;-146.41;100.00;57768.22;4980365;28;1360;-72
2024/01/28 10:10:25;;;;;;;;;;;2.30;99.90;;;-146.41;100.00;57768.22;4993675;28;1206;-72
2024/01/28 10:12:52;;;;;;;;;;;2.40;99.90;;;-146.41;100.00;57768.22;4995192;28;1934;-73
2024/01/28 10:15:23;;;;;;;;;;;2.40;99.90;;;-146.41;100.00;57768.22;4979672;28;1375;-71
2024/01/28 10:17:50;;;;;;;;;;;2.40;99.90;;;-146.41;100.00;57768.22;4977066;28;1194;-72
2024/01/28 10:20:23;;;;;;;;;;;2.40;99.90;;;-146.41;100.00;57768.22;4979149;28;1284;-71
2024/01/28 10:22:51;;;;;;;;;;;2.50;99.90;;;-146.41;100.00;57768.22;5009731;28;1043;-72
2024/01/28 10:25:19;;;;;;;;;;;2.50;99.90;;;-146.41;100.00;57768.22;4978762;28;1367;-72
2024/01/28 10:27:47;;;;;;;;;;;2.60;99.90;;;-146.41;100.00;57768.22;4981253;28;1345;-72
2024/01/28 10:30:15;;;;;;;;;;;2.70;99.90;;;-146.41;100.00;57768.22;4994233;28;1212;-71
2024/01/28 10:32:42;;;;;;;;;;;2.80;99.90;;;-146.41;100.00;57768.22;4979097;28;1911;-72
2024/01/28 10:35:11;;;;;;;;;;;2.90;99.90;;;-146.41;100.00;57768.22;4979354;28;1320;-71
2024/01/28 10:37:39;;;;;;;;;;;2.90;99.90;;;-146.41;100.00;57768.22;4978936;28;1070;-71
2024/01/28 10:40:08;;;;;;;;;;;3.00;99.90;;;-146.41;100.00;57768.22;5007714;28;1070;-71
2024/01/28 10:42:38;;;;;;;;;;;3.00;99.90;;;-146.41;100.00;57768.22;5011390;28;1320;-72
2024/01/28 10:45:05;;;;;;;;;;;;;;;-146.41;100.00;57768.22;4973992;28;1202;-71
2024/01/28 10:47:35;;;;;;;;;;;3.10;99.90;;;-146.41;100.00;57768.22;4976629;28;1801;-71
2024/01/28 10:50:07;;;;;;;;;;;3.10;99.90;;;-146.41;100.00;57768.22;4978312;28;1929;-71
2024/01/28 10:52:37;;;;;;;;;;;3.20;99.90;;;-146.41;100.00;57768.22;4978445;28;1914;-72
2024/01/28 10:55:05;;;;;;;;;;;3.20;99.90;;;-146.41;100.00;57768.22;4974386;28;1351;-72
2024/01/28 10:57:33;;;;;;;;;;;;;;;-146.41;100.00;57768.22;4981895;28;1076;-72
2024/01/28 11:00:00;;;;;;;;;;;3.40;99.90;;;-146.41;100.00;57768.22;4982379;28;1226;-72
2024/01/28 11:02:27;;;;;;;;;;;3.40;99.90;;;-146.41;100.00;57768.22;5007578;28;1014;-71
2024/01/28 11:04:59;;;;;;;;;;;3.50;99.90;;;-146.41;100.00;57768.22;4976264;28;1312;-71